createdAt,value
2022-09-23T00:00:17.006Z,6.43
2022-09-23T00:00:49.270Z,6.90
2022-09-23T00:01:21.490Z,7.95
2022-09-23T00:01:57.175Z,6.55
2022-09-23T00:02:29.455Z,7.45
2022-09-23T00:03:01.602Z,8.43
2022-09-23T00:03:38.314Z,7.65
2022-09-23T00:04:10.504Z,6.32
2022-09-23T00:04:43.018Z,6.80
2022-09-23T00:05:18.092Z,6.63
2022-09-23T00:05:58.829Z,7.82
2022-09-23T00:06:30.963Z,7.05
2022-09-23T00:07:05.647Z,6.65
2022-09-23T00:07:38.600Z,7.75
2022-09-23T00:08:12.352Z,8.02
2022-09-23T00:08:47.638Z,7.47
2022-09-23T00:09:19.723Z,7.18
2022-09-23T00:09:51.969Z,8.07
2022-09-23T00:10:28.047Z,7.53
2022-09-23T00:11:05.808Z,7.93
2022-09-23T00:11:38.450Z,7.20
2022-09-23T00:12:13.255Z,6.90
2022-09-23T00:12:45.358Z,7.78
2022-09-23T00:13:17.470Z,6.78
2022-09-23T00:13:53.022Z,7.40
2022-09-23T00:14:30.391Z,7.38
2022-09-23T00:15:02.527Z,6.97
2022-09-23T00:15:38.909Z,6.72
2022-09-23T00:16:16.148Z,7.18
2022-09-23T00:16:48.365Z,7.57
2022-09-23T00:17:20.483Z,6.97
2022-09-23T00:17:56.021Z,7.13
2022-09-23T00:18:28.115Z,7.63
2022-09-23T00:19:01.149Z,7.50
2022-09-23T00:19:35.844Z,8.13
2022-09-23T00:20:09.595Z,7.15
2022-09-23T00:20:41.834Z,7.40
2022-09-23T00:21:14.857Z,6.95
2022-09-23T00:21:49.583Z,7.55
2022-09-23T00:22:21.893Z,7.43
2022-09-23T00:22:53.985Z,8.32
2022-09-23T00:23:28.663Z,7.55
2022-09-23T00:24:01.136Z,7.53
2022-09-23T00:24:36.182Z,8.52
2022-09-23T00:25:09.676Z,7.40
2022-09-23T00:25:41.815Z,7.43
2022-09-23T00:26:19.827Z,8.25
2022-09-23T00:26:51.988Z,6.85
2022-09-23T00:27:24.171Z,7.05
2022-09-23T00:27:59.236Z,7.47
2022-09-23T00:28:32.048Z,7.60
2022-09-23T00:29:04.493Z,6.50
2022-09-23T00:29:41.862Z,7.90
2022-09-23T00:30:13.994Z,6.55
2022-09-23T00:30:46.146Z,7.15
2022-09-23T00:31:23.845Z,7.30
2022-09-23T00:31:56.081Z,7.80
2022-09-23T00:32:28.220Z,6.72
2022-09-23T00:33:02.883Z,8.05
2022-09-23T00:33:34.975Z,8.07
2022-09-23T00:34:07.068Z,8.18
2022-09-23T00:34:41.922Z,7.93
2022-09-23T00:35:14.002Z,8.90
2022-09-23T00:35:46.118Z,7.45
2022-09-23T00:36:18.310Z,7.45
2022-09-23T00:36:53.027Z,7.88
2022-09-23T00:37:25.432Z,8.07
2022-09-23T00:37:57.527Z,6.85
2022-09-23T00:38:34.107Z,7.90
2022-09-23T00:39:06.725Z,7.30
2022-09-23T00:39:38.955Z,7.85
2022-09-23T00:40:14.152Z,6.80
2022-09-23T00:40:46.996Z,7.22
2022-09-23T00:41:19.175Z,6.80
2022-09-23T00:41:54.303Z,7.25
2022-09-23T00:42:26.543Z,7.32
2022-09-23T00:42:58.684Z,7.03
2022-09-23T00:43:39.178Z,7.13
2022-09-23T00:44:44.453Z,7.10
2022-09-23T00:45:19.762Z,7.70
2022-09-23T00:45:51.934Z,6.82
2022-09-23T00:46:31.664Z,7.75
2022-09-23T00:47:04.268Z,6.95
2022-09-23T00:47:44.661Z,6.95
2022-09-23T00:48:57.697Z,7.35
2022-09-23T00:49:33.416Z,7.47
2022-09-23T00:50:10.251Z,8.02
2022-09-23T00:50:46.078Z,6.68
2022-09-23T00:51:25.018Z,7.05
2022-09-23T00:52:02.789Z,6.32
2022-09-23T00:52:35.535Z,7.57
2022-09-23T00:53:15.085Z,6.40
2022-09-23T00:53:50.526Z,7.07
2022-09-23T00:54:29.344Z,7.47
2022-09-23T00:55:03.917Z,7.20
2022-09-23T00:55:40.306Z,6.97
2022-09-23T00:56:16.831Z,7.55
2022-09-23T00:56:48.974Z,7.30
2022-09-23T00:57:21.744Z,7.13
2022-09-23T00:57:59.738Z,7.15
2022-09-23T00:58:34.366Z,7.55
2022-09-23T00:59:08.077Z,6.68
2022-09-23T00:59:43.292Z,6.75
2022-09-23T01:00:15.519Z,7.28
2022-09-23T01:00:50.357Z,7.38
2022-09-23T01:01:27.784Z,7.32
2022-09-23T01:02:02.264Z,8.38
2022-09-23T01:02:35.325Z,7.20
2022-09-23T01:03:12.123Z,6.57
2022-09-23T01:03:46.050Z,7.88
2022-09-23T01:04:19.377Z,8.05
2022-09-23T01:04:54.477Z,7.00
2022-09-23T01:05:26.866Z,7.63
2022-09-23T01:05:59.515Z,7.57
2022-09-23T01:06:34.182Z,7.40
2022-09-23T01:07:06.268Z,8.45
2022-09-23T01:07:38.727Z,7.43
2022-09-23T01:08:13.806Z,7.78
2022-09-23T01:08:50.374Z,7.38
2022-09-23T01:09:24.220Z,8.30
2022-09-23T01:09:58.506Z,6.85
2022-09-23T01:10:37.194Z,7.90
2022-09-23T01:11:26.614Z,7.35
2022-09-23T01:12:12.037Z,7.38
2022-09-23T01:13:13.001Z,7.20
2022-09-23T01:13:58.667Z,8.15
2022-09-23T01:14:40.739Z,8.98
2022-09-23T01:15:18.793Z,7.82
2022-09-23T01:16:03.917Z,7.95
2022-09-23T01:16:43.213Z,7.63
2022-09-23T01:17:27.473Z,8.13
2022-09-23T01:18:06.627Z,7.72
2022-09-23T01:18:49.023Z,7.22
2022-09-23T01:19:41.209Z,6.70
2022-09-23T01:20:44.941Z,7.90
2022-09-23T01:21:37.904Z,7.35
2022-09-23T01:22:17.312Z,7.72
2022-09-23T01:22:57.070Z,7.30
2022-09-23T01:23:55.490Z,8.00
2022-09-23T01:24:58.423Z,6.88
2022-09-23T01:26:04.055Z,7.30
2022-09-23T01:27:13.841Z,7.60
2022-09-23T01:28:02.168Z,8.05
2022-09-23T01:28:53.222Z,8.55
2022-09-23T01:29:52.825Z,7.38
2022-09-23T01:30:44.246Z,7.78
2022-09-23T01:31:24.500Z,8.38
2022-09-23T01:32:03.585Z,8.57
2022-09-23T01:33:09.185Z,7.97
2022-09-23T01:33:49.210Z,8.63
2022-09-23T01:34:25.433Z,8.60
2022-09-23T01:35:08.968Z,8.77
2022-09-23T01:36:21.686Z,8.32
2022-09-23T01:36:58.946Z,10.15
2022-09-23T01:37:37.973Z,9.70
2022-09-23T01:38:22.526Z,9.68
2022-09-23T01:39:00.843Z,10.15
2022-09-23T01:39:37.887Z,9.30
2022-09-23T01:40:19.755Z,10.15
2022-09-23T01:41:01.291Z,8.60
2022-09-23T01:41:56.251Z,8.98
2022-09-23T01:42:35.716Z,8.25
2022-09-23T01:43:14.565Z,8.33
2022-09-23T01:43:57.319Z,10.35
2022-09-23T01:44:33.568Z,7.22
2022-09-23T01:45:11.034Z,8.00
2022-09-23T01:45:54.658Z,8.90
2022-09-23T01:46:30.601Z,9.63
2022-09-23T01:47:11.091Z,7.97
2022-09-23T01:48:22.513Z,7.50
2022-09-23T01:49:05.146Z,8.60
2022-09-23T01:49:44.809Z,8.27
2022-09-23T01:50:35.011Z,8.05
2022-09-23T01:51:12.614Z,7.80
2022-09-23T01:51:52.297Z,8.38
2022-09-23T01:52:28.711Z,7.47
2022-09-23T01:53:06.416Z,8.57
2022-09-23T01:53:43.743Z,7.75
2022-09-23T01:54:24.279Z,7.90
2022-09-23T01:55:03.145Z,7.75
2022-09-23T01:55:40.514Z,8.90
2022-09-23T01:56:21.546Z,8.40
2022-09-23T01:56:59.156Z,8.32
2022-09-23T01:57:35.137Z,9.05
2022-09-23T01:58:13.128Z,8.85
2022-09-23T01:58:51.265Z,8.75
2022-09-23T01:59:29.399Z,8.10
2022-09-23T02:00:08.432Z,9.27
2022-09-23T02:00:53.527Z,8.30
2022-09-23T02:01:32.588Z,8.00
2022-09-23T02:02:15.423Z,8.07
2022-09-23T02:02:51.509Z,8.63
2022-09-23T02:03:28.891Z,9.40
2022-09-23T02:04:08.913Z,9.15
2022-09-23T02:04:47.303Z,8.77
2022-09-23T02:05:26.186Z,8.45
2022-09-23T02:06:06.280Z,8.02
2022-09-23T02:06:42.150Z,9.18
2022-09-23T02:07:18.234Z,8.98
2022-09-23T02:07:59.522Z,8.65
2022-09-23T02:08:38.021Z,9.30
2022-09-23T02:09:15.492Z,8.98
2022-09-23T02:09:56.468Z,8.82
2022-09-23T02:10:33.656Z,7.90
2022-09-23T02:11:08.862Z,8.05
2022-09-23T02:11:46.174Z,8.05
2022-09-23T02:12:21.461Z,8.10
2022-09-23T02:12:57.746Z,8.63
2022-09-23T02:13:40.108Z,8.70
2022-09-23T02:14:17.354Z,7.47
2022-09-23T02:14:55.062Z,9.50
2022-09-23T02:15:32.090Z,8.02
2022-09-23T02:16:13.042Z,8.65
2022-09-23T02:16:50.283Z,8.38
2022-09-23T02:17:29.236Z,8.55
2022-09-23T02:18:05.534Z,8.13
2022-09-23T02:18:46.408Z,8.45
2022-09-23T02:19:22.927Z,8.45
2022-09-23T02:20:01.427Z,7.45
2022-09-23T02:20:40.496Z,8.10
2022-09-23T02:21:15.864Z,7.15
2022-09-23T02:21:55.522Z,7.78
2022-09-23T02:22:35.428Z,8.30
2022-09-23T02:23:12.515Z,8.07
2022-09-23T02:23:50.620Z,7.88
2022-09-23T02:24:30.156Z,7.55
2022-09-23T02:25:03.808Z,8.07
2022-09-23T02:25:45.060Z,7.45
2022-09-23T02:26:23.977Z,12.63
2022-09-23T02:27:05.513Z,7.80
2022-09-23T02:27:44.730Z,7.57
2022-09-23T02:28:24.289Z,7.82
2022-09-23T02:29:04.251Z,7.95
2022-09-23T02:29:48.602Z,7.30
2022-09-23T02:30:27.291Z,9.27
2022-09-23T02:31:08.938Z,7.03
2022-09-23T02:31:48.238Z,8.02
2022-09-23T02:32:24.024Z,7.63
2022-09-23T02:33:04.587Z,7.43
2022-09-23T02:33:45.413Z,7.85
2022-09-23T02:34:22.338Z,7.85
2022-09-23T02:35:01.696Z,8.60
2022-09-23T02:35:42.066Z,7.45
2022-09-23T02:37:02.800Z,7.63
2022-09-23T02:37:44.283Z,8.07
2022-09-23T02:38:23.307Z,7.82
2022-09-23T02:38:58.237Z,7.47
2022-09-23T02:39:38.640Z,7.85
2022-09-23T02:40:23.911Z,7.47
2022-09-23T02:41:00.866Z,7.70
2022-09-23T02:41:43.085Z,7.65
2022-09-23T02:42:24.318Z,7.28
2022-09-23T02:43:05.955Z,7.53
2022-09-23T02:43:48.722Z,8.38
2022-09-23T02:44:23.729Z,7.50
2022-09-23T02:44:56.142Z,7.82
2022-09-23T02:45:31.333Z,8.02
2022-09-23T02:46:07.474Z,7.68
2022-09-23T02:46:41.458Z,8.02
2022-09-23T02:47:16.232Z,7.05
2022-09-23T02:47:53.556Z,7.28
2022-09-23T02:48:32.430Z,7.28
2022-09-23T02:49:12.987Z,7.03
2022-09-23T02:49:45.146Z,7.60
2022-09-23T02:50:18.237Z,7.80
2022-09-23T02:50:53.458Z,7.40
2022-09-23T02:51:25.878Z,7.78
2022-09-23T02:52:01.417Z,7.25
2022-09-23T02:52:36.815Z,7.13
2022-09-23T02:53:09.094Z,7.88
2022-09-23T02:53:41.350Z,7.78
2022-09-23T02:54:18.669Z,6.70
2022-09-23T02:54:51.487Z,7.18
2022-09-23T02:55:25.612Z,6.57
2022-09-23T02:56:00.322Z,7.25
2022-09-23T02:56:32.411Z,6.50
2022-09-23T02:57:07.183Z,7.38
2022-09-23T02:57:42.141Z,7.05
2022-09-23T02:58:14.505Z,6.50
2022-09-23T02:58:47.311Z,7.47
2022-09-23T02:59:23.868Z,7.05
2022-09-23T02:59:56.229Z,7.75
2022-09-23T03:00:35.605Z,7.22
2022-09-23T03:01:24.434Z,7.13
2022-09-23T03:02:34.715Z,7.20
2022-09-23T03:03:23.375Z,6.85
2022-09-23T03:04:07.006Z,9.10
2022-09-23T03:04:47.584Z,7.80
2022-09-23T03:05:27.612Z,6.70
2022-09-23T03:06:05.327Z,7.43
2022-09-23T03:06:50.590Z,6.90
2022-09-23T03:07:34.397Z,7.65
2022-09-23T03:08:28.430Z,7.60
2022-09-23T03:09:09.003Z,9.65
2022-09-23T03:09:54.895Z,7.90
2022-09-23T03:10:35.622Z,7.15
2022-09-23T03:11:13.692Z,7.85
2022-09-23T03:11:53.402Z,8.77
2022-09-23T03:12:36.239Z,7.95
2022-09-23T03:13:19.191Z,8.35
2022-09-23T03:14:05.192Z,7.65
2022-09-23T03:14:49.602Z,7.63
2022-09-23T03:15:31.682Z,8.70
2022-09-23T03:16:19.727Z,7.72
2022-09-23T03:16:57.111Z,7.38
2022-09-23T03:17:37.679Z,8.40
2022-09-23T03:18:20.492Z,7.40
2022-09-23T03:18:58.885Z,7.75
2022-09-23T03:19:35.450Z,7.57
2022-09-23T03:20:15.519Z,7.72
2022-09-23T03:20:51.515Z,7.40
2022-09-23T03:21:30.681Z,7.85
2022-09-23T03:22:11.271Z,8.50
2022-09-23T03:22:47.167Z,8.73
2022-09-23T03:23:25.341Z,9.32
2022-09-23T03:24:02.996Z,7.95
2022-09-23T03:24:38.170Z,7.47
2022-09-23T03:25:16.262Z,6.53
2022-09-23T03:25:54.253Z,8.73
2022-09-23T03:26:31.465Z,7.78
2022-09-23T03:27:13.590Z,7.45
2022-09-23T03:27:48.677Z,7.97
2022-09-23T03:28:22.659Z,9.02
2022-09-23T03:28:57.747Z,8.45
2022-09-23T03:29:32.609Z,8.68
2022-09-23T03:30:07.357Z,8.88
2022-09-23T03:30:43.666Z,7.82
2022-09-23T03:31:18.805Z,8.68
2022-09-23T03:31:51.101Z,8.70
2022-09-23T03:32:28.092Z,7.00
2022-09-23T03:33:03.222Z,8.27
2022-09-23T03:33:38.947Z,7.68
2022-09-23T03:34:16.345Z,7.28
2022-09-23T03:34:53.428Z,7.90
2022-09-23T03:35:29.571Z,8.23
2022-09-23T03:36:22.032Z,8.27
2022-09-23T03:37:03.406Z,6.95
2022-09-23T03:37:42.130Z,7.43
2022-09-23T03:38:17.460Z,7.53
2022-09-23T03:38:56.139Z,9.02
2022-09-23T03:39:34.751Z,8.55
2022-09-23T03:40:12.534Z,7.88
2022-09-23T03:40:51.135Z,7.60
2022-09-23T03:41:30.066Z,7.93
2022-09-23T03:42:09.963Z,7.32
2022-09-23T03:42:42.714Z,7.03
2022-09-23T03:43:14.935Z,7.95
2022-09-23T03:43:49.832Z,7.25
2022-09-23T03:44:22.188Z,7.72
2022-09-23T03:44:59.200Z,7.35
2022-09-23T03:45:33.551Z,7.68
2022-09-23T03:46:08.349Z,8.23
2022-09-23T03:46:49.954Z,7.95
2022-09-23T03:47:23.030Z,7.10
2022-09-23T03:47:55.132Z,8.20
2022-09-23T03:48:30.442Z,7.65
2022-09-23T03:49:10.221Z,7.65
2022-09-23T03:49:45.850Z,7.85
2022-09-23T03:50:21.046Z,8.57
2022-09-23T03:50:53.158Z,7.68
2022-09-23T03:51:25.742Z,7.22
2022-09-23T03:51:58.553Z,9.80
2022-09-23T03:52:33.657Z,7.78
2022-09-23T03:53:05.754Z,7.45
2022-09-23T03:53:38.539Z,7.88
2022-09-23T03:54:13.269Z,8.30
2022-09-23T03:54:53.758Z,7.43
2022-09-23T03:55:26.186Z,9.18
2022-09-23T03:56:01.199Z,9.18
2022-09-23T03:56:33.718Z,8.73
2022-09-23T03:57:07.387Z,7.82
2022-09-23T03:57:42.427Z,7.93
2022-09-23T03:58:14.906Z,8.52
2022-09-23T03:58:47.356Z,8.70
2022-09-23T03:59:23.088Z,8.02
2022-09-23T03:59:55.491Z,8.25
2022-09-23T04:00:28.022Z,8.48
2022-09-23T04:01:04.200Z,8.50
2022-09-23T04:01:36.889Z,7.97
2022-09-23T04:02:16.766Z,8.57
2022-09-23T04:02:50.008Z,8.85
2022-09-23T04:03:22.909Z,9.88
2022-09-23T04:03:57.973Z,9.60
2022-09-23T04:04:34.324Z,8.88
2022-09-23T04:05:10.817Z,9.20
2022-09-23T04:05:43.482Z,8.20
2022-09-23T04:06:15.997Z,8.38
2022-09-23T04:06:51.151Z,8.90
2022-09-23T04:07:23.620Z,7.97
2022-09-23T04:07:56.898Z,9.73
2022-09-23T04:08:31.923Z,7.40
2022-09-23T04:09:04.614Z,8.15
2022-09-23T04:09:37.674Z,7.32
2022-09-23T04:10:13.750Z,7.75
2022-09-23T04:10:46.961Z,7.90
2022-09-23T04:11:20.262Z,7.18
2022-09-23T04:11:56.261Z,7.07
2022-09-23T04:12:28.834Z,7.82
2022-09-23T04:13:01.248Z,7.28
2022-09-23T04:13:36.288Z,8.50
2022-09-23T04:14:08.852Z,9.13
2022-09-23T04:14:41.576Z,7.10
2022-09-23T04:15:16.619Z,8.48
2022-09-23T04:15:50.641Z,8.55
2022-09-23T04:16:23.284Z,8.85
2022-09-23T04:16:58.821Z,8.98
2022-09-23T04:17:34.465Z,8.75
2022-09-23T04:18:06.898Z,8.00
2022-09-23T04:18:41.872Z,8.23
2022-09-23T04:19:15.154Z,7.90
2022-09-23T04:19:47.595Z,7.53
2022-09-23T04:20:22.620Z,8.63
2022-09-23T04:20:59.017Z,9.40
2022-09-23T04:21:31.526Z,8.82
2022-09-23T04:22:07.141Z,8.95
2022-09-23T04:22:39.705Z,9.02
2022-09-23T04:23:12.149Z,9.13
2022-09-23T04:23:47.199Z,7.13
2022-09-23T04:24:19.702Z,10.07
2022-09-23T04:24:52.247Z,9.48
2022-09-23T04:25:27.329Z,7.53
2022-09-23T04:25:59.766Z,8.50
2022-09-23T04:26:32.722Z,8.85
2022-09-23T04:27:08.205Z,9.05
2022-09-23T04:27:40.636Z,7.40
2022-09-23T04:28:13.270Z,8.15
2022-09-23T04:28:45.698Z,8.20
2022-09-23T04:29:20.728Z,7.90
2022-09-23T04:29:53.154Z,7.82
2022-09-23T04:30:25.602Z,9.50
2022-09-23T04:31:00.928Z,9.00
2022-09-23T04:31:34.593Z,8.52
2022-09-23T04:32:07.270Z,8.77
2022-09-23T04:32:44.986Z,10.15
2022-09-23T04:33:18.378Z,9.35
2022-09-23T04:33:50.975Z,10.30
2022-09-23T04:34:26.119Z,10.43
2022-09-23T04:34:58.588Z,8.73
2022-09-23T04:35:30.989Z,9.00
2022-09-23T04:36:06.186Z,9.63
2022-09-23T04:36:38.658Z,7.93
2022-09-23T04:37:13.796Z,9.05
2022-09-23T04:37:48.276Z,8.43
2022-09-23T04:38:20.759Z,8.63
2022-09-23T04:38:56.580Z,8.00
2022-09-23T04:39:29.138Z,8.90
2022-09-23T04:40:02.132Z,8.40
2022-09-23T04:40:38.852Z,8.90
2022-09-23T04:41:11.450Z,8.85
2022-09-23T04:41:44.761Z,11.02
2022-09-23T04:42:19.812Z,10.68
2022-09-23T04:42:52.196Z,8.63
2022-09-23T04:43:24.670Z,7.80
2022-09-23T04:44:00.331Z,10.07
2022-09-23T04:44:33.210Z,9.77
2022-09-23T04:45:06.506Z,8.15
2022-09-23T04:45:41.543Z,8.93
2022-09-23T04:46:15.737Z,7.40
2022-09-23T04:46:48.985Z,9.07
2022-09-23T04:47:24.195Z,9.40
2022-09-23T04:47:59.471Z,8.52
2022-09-23T04:48:32.195Z,8.95
2022-09-23T04:49:07.391Z,8.25
2022-09-23T04:49:40.871Z,11.88
2022-09-23T04:50:13.288Z,8.38
2022-09-23T04:50:48.989Z,10.73
2022-09-23T04:51:25.126Z,8.27
2022-09-23T04:52:00.238Z,9.43
2022-09-23T04:52:32.680Z,7.93
2022-09-23T04:53:05.273Z,8.93
2022-09-23T04:53:42.523Z,7.45
2022-09-23T04:54:15.132Z,8.90
2022-09-23T04:54:47.567Z,8.25
2022-09-23T04:55:23.174Z,8.88
2022-09-23T04:55:55.646Z,9.52
2022-09-23T04:56:30.412Z,8.52
2022-09-23T04:57:05.650Z,9.48
2022-09-23T04:57:38.088Z,8.60
2022-09-23T04:58:10.575Z,8.52
2022-09-23T04:58:46.471Z,8.93
2022-09-23T04:59:19.081Z,9.52
2022-09-23T04:59:51.506Z,8.63
2022-09-23T05:00:27.186Z,9.85
2022-09-23T05:01:04.970Z,8.05
2022-09-23T05:01:38.654Z,7.45
2022-09-23T05:02:14.401Z,7.22
2022-09-23T05:02:48.330Z,7.22
2022-09-23T05:03:23.984Z,7.82
2022-09-23T05:04:02.614Z,8.00
2022-09-23T05:04:35.651Z,10.05
2022-09-23T05:05:08.454Z,8.57
2022-09-23T05:05:40.919Z,8.88
2022-09-23T05:06:17.387Z,9.02
2022-09-23T05:06:49.824Z,9.40
2022-09-23T05:07:22.271Z,8.90
2022-09-23T05:07:58.220Z,9.27
2022-09-23T05:08:30.872Z,8.93
2022-09-23T05:09:09.031Z,8.18
2022-09-23T05:09:41.799Z,9.63
2022-09-23T05:10:14.541Z,10.05
2022-09-23T05:10:49.929Z,11.05
2022-09-23T05:11:23.380Z,11.27
2022-09-23T05:11:58.418Z,9.05
2022-09-23T05:12:30.844Z,10.00
2022-09-23T05:13:03.289Z,13.35
2022-09-23T05:13:38.486Z,10.85
2022-09-23T05:14:11.143Z,13.90
2022-09-23T05:14:43.941Z,8.48
2022-09-23T05:15:19.067Z,8.80
2022-09-23T05:15:58.054Z,10.40
2022-09-23T05:16:33.266Z,9.80
2022-09-23T05:17:05.753Z,9.73
2022-09-23T05:17:40.902Z,11.27
2022-09-23T05:18:15.168Z,8.68
2022-09-23T05:18:53.410Z,8.43
2022-09-23T05:19:28.472Z,8.02
2022-09-23T05:20:01.018Z,8.32
2022-09-23T05:20:33.457Z,8.52
2022-09-23T05:21:08.960Z,9.48
2022-09-23T05:21:41.399Z,9.98
2022-09-23T05:22:13.862Z,11.35
2022-09-23T05:22:48.877Z,11.80
2022-09-23T05:23:21.823Z,11.35
2022-09-23T05:24:00.869Z,8.88
2022-09-23T05:24:33.478Z,11.25
2022-09-23T05:25:06.655Z,9.20
2022-09-23T05:25:42.668Z,10.10
2022-09-23T05:26:15.480Z,9.43
2022-09-23T05:26:48.276Z,8.77
2022-09-23T05:27:23.702Z,10.10
2022-09-23T05:27:56.131Z,8.95
2022-09-23T05:28:30.132Z,8.90
2022-09-23T05:29:05.127Z,9.98
2022-09-23T05:29:38.765Z,10.68
2022-09-23T05:30:14.792Z,9.73
2022-09-23T05:30:47.251Z,8.93
2022-09-23T05:31:22.025Z,10.95
2022-09-23T05:31:57.205Z,11.30
2022-09-23T05:32:29.682Z,9.68
2022-09-23T05:33:02.930Z,9.55
2022-09-23T05:33:39.735Z,11.10
2022-09-23T05:34:14.778Z,11.10
2022-09-23T05:34:49.896Z,10.55
2022-09-23T05:35:22.571Z,8.35
2022-09-23T05:35:54.990Z,9.85
2022-09-23T05:36:36.890Z,8.82
2022-09-23T05:37:10.736Z,9.10
2022-09-23T05:37:45.784Z,10.18
2022-09-23T05:38:18.266Z,10.07
2022-09-23T05:38:53.750Z,9.48
2022-09-23T05:39:26.168Z,10.23
2022-09-23T05:39:58.610Z,9.07
2022-09-23T05:40:33.706Z,9.25
2022-09-23T05:41:07.703Z,9.52
2022-09-23T05:41:43.587Z,9.70
2022-09-23T05:42:21.380Z,11.88
2022-09-23T05:42:53.819Z,8.40
2022-09-23T05:43:28.007Z,11.00
2022-09-23T05:44:03.235Z,9.70
2022-09-23T05:44:35.675Z,9.10
2022-09-23T05:45:11.773Z,10.55
2022-09-23T05:45:44.420Z,11.65
2022-09-23T05:46:18.650Z,10.60
2022-09-23T05:46:53.745Z,9.38
2022-09-23T05:47:26.235Z,8.82
2022-09-23T05:47:59.068Z,9.07
2022-09-23T05:48:35.286Z,11.93
2022-09-23T05:49:08.248Z,9.60
2022-09-23T05:49:59.255Z,8.18
2022-09-23T05:50:32.708Z,9.38
2022-09-23T05:51:09.199Z,11.25
2022-09-23T05:51:44.227Z,9.48
2022-09-23T05:52:17.364Z,10.63
2022-09-23T05:52:49.875Z,10.27
2022-09-23T05:53:24.903Z,8.90
2022-09-23T05:53:58.466Z,11.15
2022-09-23T05:54:30.941Z,9.63
2022-09-23T05:55:06.031Z,9.38
2022-09-23T05:55:38.452Z,8.95
2022-09-23T05:56:11.645Z,8.98
2022-09-23T05:56:46.797Z,9.77
2022-09-23T05:57:19.985Z,9.48
2022-09-23T05:57:52.490Z,9.73
2022-09-23T05:58:27.950Z,11.18
2022-09-23T05:59:01.909Z,9.10
2022-09-23T05:59:34.404Z,10.60
2022-09-23T06:00:11.303Z,8.55
2022-09-23T06:00:46.307Z,9.98
2022-09-23T06:01:21.272Z,9.15
2022-09-23T06:01:56.768Z,10.88
2022-09-23T06:02:29.473Z,9.00
2022-09-23T06:03:02.030Z,9.38
2022-09-23T06:03:37.129Z,8.65
2022-09-23T06:04:14.427Z,12.13
2022-09-23T06:04:52.047Z,9.80
2022-09-23T06:05:24.552Z,9.82
2022-09-23T06:05:57.081Z,10.90
2022-09-23T06:06:34.064Z,9.48
2022-09-23T06:07:06.546Z,12.63
2022-09-23T06:07:41.619Z,9.77
2022-09-23T06:08:14.617Z,9.18
2022-09-23T06:08:47.882Z,10.77
2022-09-23T06:09:23.077Z,7.82
2022-09-23T06:09:55.473Z,9.70
2022-09-23T06:10:27.962Z,9.15
2022-09-23T06:11:09.441Z,10.05
2022-09-23T06:11:42.419Z,8.88
2022-09-23T06:12:17.502Z,8.82
2022-09-23T06:12:50.325Z,8.02
2022-09-23T06:13:22.904Z,8.27
2022-09-23T06:14:01.310Z,7.55
2022-09-23T06:14:33.962Z,8.90
2022-09-23T06:15:07.869Z,7.88
2022-09-23T06:15:43.932Z,8.05
2022-09-23T06:16:16.758Z,9.48
2022-09-23T06:16:51.810Z,8.40
2022-09-23T06:17:24.376Z,8.77
2022-09-23T06:17:56.816Z,8.88
2022-09-23T06:18:31.944Z,7.05
2022-09-23T06:19:06.713Z,8.20
2022-09-23T06:19:42.132Z,7.30
2022-09-23T06:20:17.340Z,7.93
2022-09-23T06:20:49.784Z,7.47
2022-09-23T06:21:24.849Z,7.63
2022-09-23T06:21:57.254Z,8.82
2022-09-23T06:22:34.474Z,8.68
2022-09-23T06:23:11.641Z,9.52
2022-09-23T06:23:45.533Z,8.05
2022-09-23T06:24:23.040Z,9.63
2022-09-23T06:24:57.408Z,10.32
2022-09-23T06:25:30.512Z,9.10
2022-09-23T06:26:06.689Z,8.23
2022-09-23T06:26:39.169Z,12.38
2022-09-23T06:27:11.588Z,8.70
2022-09-23T06:27:46.707Z,8.60
2022-09-23T06:28:19.554Z,10.27
2022-09-23T06:28:52.105Z,8.30
2022-09-23T06:29:27.249Z,10.60
2022-09-23T06:30:00.067Z,9.38
2022-09-23T06:30:34.300Z,8.52
2022-09-23T06:31:14.005Z,8.70
2022-09-23T06:31:49.212Z,10.48
2022-09-23T06:32:24.287Z,11.65
2022-09-23T06:32:58.293Z,9.57
2022-09-23T06:33:36.488Z,10.95
2022-09-23T06:34:14.372Z,11.55
2022-09-23T06:34:51.872Z,12.98
2022-09-23T06:35:28.325Z,11.50
2022-09-23T06:36:05.416Z,8.93
2022-09-23T06:36:43.965Z,11.13
2022-09-23T06:37:21.023Z,9.73
2022-09-23T06:37:54.335Z,11.57
2022-09-23T06:38:27.924Z,9.13
2022-09-23T06:39:03.045Z,10.73
2022-09-23T06:39:35.525Z,9.40
2022-09-23T06:40:08.943Z,10.35
2022-09-23T06:40:44.133Z,9.88
2022-09-23T06:41:17.236Z,10.05
2022-09-23T06:41:52.250Z,10.77
2022-09-23T06:42:24.883Z,9.43
2022-09-23T06:43:01.415Z,9.95
2022-09-23T06:43:36.595Z,9.55
2022-09-23T06:44:09.465Z,9.27
2022-09-23T06:44:44.535Z,11.57
2022-09-23T06:45:17.188Z,10.63
2022-09-23T06:45:53.420Z,13.05
2022-09-23T06:46:28.522Z,11.52
2022-09-23T06:47:01.063Z,11.00
2022-09-23T06:47:37.913Z,10.70
2022-09-23T06:48:10.380Z,9.02
2022-09-23T06:48:46.155Z,10.07
2022-09-23T06:49:22.826Z,11.27
2022-09-23T06:49:55.299Z,9.52
2022-09-23T06:50:32.966Z,9.13
2022-09-23T06:51:07.519Z,10.23
2022-09-23T06:51:42.841Z,9.75
2022-09-23T06:52:15.302Z,9.30
2022-09-23T06:52:51.623Z,8.77
2022-09-23T06:53:26.766Z,9.30
2022-09-23T06:53:59.196Z,9.70
2022-09-23T06:54:34.520Z,10.82
2022-09-23T06:55:08.308Z,10.32
2022-09-23T06:55:41.484Z,9.48
2022-09-23T06:56:17.543Z,11.38
2022-09-23T06:56:49.962Z,9.95
2022-09-23T06:57:24.960Z,9.80
2022-09-23T06:57:58.789Z,9.60
2022-09-23T06:58:32.422Z,9.52
2022-09-23T06:59:07.566Z,9.88
2022-09-23T06:59:40.241Z,9.13
2022-09-23T07:00:16.750Z,10.38
2022-09-23T07:00:49.323Z,11.27
2022-09-23T07:01:24.465Z,10.95
2022-09-23T07:01:56.960Z,11.10
2022-09-23T07:02:29.750Z,11.10
2022-09-23T07:03:05.014Z,10.50
2022-09-23T07:03:38.511Z,11.10
2022-09-23T07:04:13.560Z,9.25
2022-09-23T07:04:46.026Z,10.32
2022-09-23T07:05:18.835Z,8.82
2022-09-23T07:05:57.530Z,9.75
2022-09-23T07:06:30.144Z,11.45
2022-09-23T07:07:05.153Z,10.95
2022-09-23T07:07:38.413Z,11.48
2022-09-23T07:08:10.862Z,9.10
2022-09-23T07:08:47.606Z,10.43
2022-09-23T07:09:20.316Z,10.73
2022-09-23T07:09:55.388Z,9.48
2022-09-23T07:10:29.301Z,10.52
2022-09-23T07:11:06.343Z,13.32
2022-09-23T07:11:39.997Z,9.85
2022-09-23T07:12:15.581Z,12.13
2022-09-23T07:12:48.011Z,10.75
2022-09-23T07:13:20.630Z,10.13
2022-09-23T07:13:55.701Z,9.30
2022-09-23T07:14:28.133Z,9.00
2022-09-23T07:15:00.562Z,9.57
2022-09-23T07:15:36.620Z,8.60
2022-09-23T07:16:09.865Z,8.63
2022-09-23T07:16:45.014Z,7.82
2022-09-23T07:17:17.399Z,8.27
2022-09-23T07:17:50.070Z,8.98
2022-09-23T07:18:26.074Z,9.57
2022-09-23T07:18:58.776Z,8.20
2022-09-23T07:19:31.262Z,9.60
2022-09-23T07:20:06.647Z,9.65
2022-09-23T07:20:39.079Z,9.43
2022-09-23T07:21:18.183Z,8.95
2022-09-23T07:21:50.723Z,7.75
2022-09-23T07:22:25.107Z,8.20
2022-09-23T07:23:00.137Z,8.15
2022-09-23T07:23:33.666Z,8.40
2022-09-23T07:24:09.289Z,8.77
2022-09-23T07:24:41.838Z,9.07
2022-09-23T07:25:14.333Z,10.57
2022-09-23T07:25:51.934Z,8.10
2022-09-23T07:26:25.759Z,7.65
2022-09-23T07:26:58.283Z,9.93
2022-09-23T07:27:33.536Z,8.60
2022-09-23T07:28:07.119Z,9.07
2022-09-23T07:28:42.561Z,9.43
2022-09-23T07:29:15.536Z,10.30
2022-09-23T07:29:51.990Z,9.52
2022-09-23T07:30:25.609Z,9.70
2022-09-23T07:31:05.018Z,9.23
2022-09-23T07:31:39.957Z,9.10
2022-09-23T07:32:14.381Z,8.60
2022-09-23T07:32:49.716Z,7.90
2022-09-23T07:33:31.575Z,7.90
2022-09-23T07:34:08.389Z,8.35
2022-09-23T07:34:40.926Z,9.45
2022-09-23T07:35:17.004Z,9.07
2022-09-23T07:35:49.434Z,8.65
2022-09-23T07:36:24.784Z,9.15
2022-09-23T07:36:59.817Z,7.10
2022-09-23T07:37:32.303Z,7.70
2022-09-23T07:38:07.348Z,7.60
2022-09-23T07:38:45.124Z,7.07
2022-09-23T07:39:20.781Z,7.95
2022-09-23T07:39:53.189Z,8.23
2022-09-23T07:40:28.437Z,6.03
2022-09-23T07:41:02.768Z,6.95
2022-09-23T07:41:38.233Z,7.18
2022-09-23T07:42:13.396Z,6.95
2022-09-23T07:42:48.521Z,7.00
2022-09-23T07:43:21.116Z,5.88
2022-09-23T07:43:55.675Z,7.10
2022-09-23T07:44:32.096Z,8.13
2022-09-23T07:45:07.023Z,9.18
2022-09-23T07:45:43.717Z,8.00
2022-09-23T07:46:18.069Z,7.65
2022-09-23T07:46:53.172Z,8.82
2022-09-23T07:47:25.703Z,7.75
2022-09-23T07:47:58.239Z,8.85
2022-09-23T07:48:34.816Z,10.70
2022-09-23T07:49:07.354Z,10.27
2022-09-23T07:49:42.459Z,10.30
2022-09-23T07:50:14.951Z,10.70
2022-09-23T07:50:47.461Z,15.18
2022-09-23T07:51:29.843Z,15.38
2022-09-23T07:52:05.280Z,17.98
2022-09-23T07:52:41.019Z,15.40
2022-09-23T07:53:16.198Z,11.45
2022-09-23T07:53:52.441Z,12.27
2022-09-23T07:54:29.802Z,10.38
2022-09-23T07:55:04.871Z,8.82
2022-09-23T07:55:37.323Z,8.05
2022-09-23T07:56:12.735Z,12.05
2022-09-23T07:56:45.755Z,16.95
2022-09-23T07:57:21.169Z,18.38
2022-09-23T07:57:53.781Z,15.00
2022-09-23T07:58:26.832Z,11.35
2022-09-23T07:59:05.099Z,11.25
2022-09-23T07:59:37.619Z,9.93
2022-09-23T08:00:13.453Z,8.57